• images/banner/banner1.jpg
  • images/banner/banner2.jpg

Team Member Login

Aviation Weather

[source: ADDS]
METAR
EGVN 230003Z 22012G22KT 5000 +RA BKN036 BKN050 12/10 Q0985 WHT TEMPO 4000 GRN =
TAF
TAF EGVN 222241Z 2300/2324 20018G28KT 9999 BKN025 TEMPO 2300/2305 5000 RA BKN010 PROB30 TEMPO 2300/2302 4000 +RA BECMG 2304/2307 24012KT TEMPO 2310/2315 23018G28KT =